Domov               UVHVVR             MKGP            O straneh              
ZDRAVSTVENO VARSTVO RASTLIN
  MREŽA AGROMET. POSTAJ
 ► PROGNOSTIČNA OBVESTILA
AGROMETEOROLOŠKI PODATKI -
ARSO
OBVLADOVANJE TVEGANJ ZARADI
NEUGODNIH VREMENSKIH RAZMER
  ► NARAVNE NESREČE
  ► SUŠA/MOČA
  ► NAMAKANJE
  ► ŽLED (gozdarstvo)
KARTOGRAFSKI PRIKAZI
SPLETNE POVEZAVE
PROJEKTI IN PUBLIKACIJE

AGROMETEOROLOŠKA MREŽA: VREMENSKE POSTAJE IN FENOLOŠKA OPAZOVANJA

Pregled podatkov za lokacijo Slap, meteorološka postaja 49193

Pregled senzorjev na lokaciji

ID Ime Zadnja
vrednost
Datum
zadnje
spremembe
Tip
senzorja
3687 Temperatura 2 m ( °C) 16,67 °C 24.8.2017 08:00 50YA
3688 Relativna vlaga 2 m (% RH) 99,93 % RH 24.8.2017 08:00 50YA
3689 Omočenost lista (U) 1 U 24.8.2017 08:00 A730WET
3690 Sončno sevanje (W/m2) 2000 W/m2 24.8.2017 08:00 Pyranometer SP-Lite
3691 Temperatura tal ( °C) 22,59 °C 24.8.2017 08:00 99TG411E
3692 Hitrost vetra (km/h) 0,15 km/h 24.8.2017 08:00 566.2S-176 (200km/h)
3693 Smer vetra (°) 157,83 ° 24.8.2017 08:00 566.2S-130
3694 Padavine 0.2 mm (mm) 0 mm 24.8.2017 08:00 Rain-O-Matic

Pregled podatkov zadnjih 24 ur

Zap.
št.
Datum in čas Slap
Hitrost
vetra
Omočenost
lista
Padavine
0.2
mm
Relativna
vlaga
2
m
Smer
vetra
Sončno
sevanje
Temperatura
2
m
Temperatura
tal
0 24.8.2017 07:00 0,15 1 0 99,93 157,83 2000 16,67 22,59
1 24.8.2017 06:30 0,15 1 0 100 297,78 2000 15,14 22,52
2 24.8.2017 06:00 0,15 1 0 100 221,37 2000 14,76 22,59
3 24.8.2017 05:30 0,15 1 0 100 208,45 2000 14,3 22,57
4 24.8.2017 05:00 0,15 1 0 100 200,55 1744,14 12,87 22,34
5 24.8.2017 04:30 0,15 1 0 100 230,51 255,8 11,86 22,14
6 24.8.2017 04:00 0,15 1 0 100 215,9 147,71 12,18 22,2
7 24.8.2017 03:30 0,15 0 0 100 120,29 315,8 12,29 22,25
8 24.8.2017 03:00 0,15 0 0 100 205,68 264,53 12,71 22,3
9 24.8.2017 02:30 0,15 1 0 99,9 204,28 209,69 12,6 22,35
10 24.8.2017 02:00 0,15 1 0 99,12 225,56 248,11 12,79 22,41
11 24.8.2017 01:30 1,1 1 0 99,05 242,82 173,04 13,29 22,47
12 24.8.2017 01:00 0,55 1 0 99,11 196,55 133 13,44 22,51
13 24.8.2017 00:30 0,5 1 0 98,58 171,36 97,32 13,59 22,55
14 24.8.2017 00:00 0,39 1 0 97,8 249,53 165,96 13,81 22,58
15 23.8.2017 23:30 0,15 1 0 96,91 244,53 14,12 22,6
16 23.8.2017 23:00 0,6 1 0 96,8 185,3 14,33 22,62
17 23.8.2017 22:30 0,15 1 0 94,55 264,31 14,75 22,65
18 23.8.2017 22:00 0,3 1 0 91,91 182,83 15,65 22,66
19 23.8.2017 21:30 0,68 1 0 91,3 217,79 15,94 22,64
20 23.8.2017 21:00 0,86 0 0 83,94 267,36 17,2 22,65
21 23.8.2017 20:30 2,24 0 0 79,28 176,17 18,18 22,62
22 23.8.2017 20:00 1,46 0 0 77,81 199,12 18,97 22,64
23 23.8.2017 19:30 3,51 0 0 73,69 192,45 22,71 23,19
24 23.8.2017 19:00 1,04 0 0 68,76 133,21 24,6 23,25
25 23.8.2017 18:30 0,78 0 0 56,76 233,57 27,59 23,3
26 23.8.2017 18:00 3,99 0 0 50,51 310,18 28,72 23,31
27 23.8.2017 17:30 6,29 0 0 47,8 284,65 29,03 23,14
28 23.8.2017 17:00 8,72 0 0 47,52 329,43 29,43 23,14
29 23.8.2017 16:30 9,42 0 0 46,83 311,1 29,68 23,05
30 23.8.2017 16:00 10,22 0 0 45,65 328,91 30,49 23,02
31 23.8.2017 15:30 10,22 0 0 45,81 331,51 30,57 22,9
32 23.8.2017 15:00 10,5 0 0 45,38 313,29 30,3 22,82
33 23.8.2017 14:30 6,67 0 0 41,46 309,22 30,67 22,71
34 23.8.2017 14:00 8,01 0 0 41,52 260,69 30,63 22,66
35 23.8.2017 13:30 6,42 0 0 40,47 310,52 31,02 22,68
36 23.8.2017 13:00 5,56 0 0 41,51 345,85 30,84 22,64
37 23.8.2017 12:30 4,93 0 0 41,01 347,27 29,71 22,47
38 23.8.2017 12:00 4,4 0 0 41,14 278,52 29,15 22,51
39 23.8.2017 11:30 4,35 0 0 41,47 163,16 28,82 22,49
40 23.8.2017 11:00 3,75 0 0 40,72 314,18 28,87 22,58
41 23.8.2017 10:30 3,57 0 0 43,34 74,84 27,51 22,52
42 23.8.2017 10:00 2,68 0 0 46,72 288,18 26,77 22,52
43 23.8.2017 09:30 2,65 0 0 52,9 245,94 25,11 22,47
44 23.8.2017 09:00 2,84 0 0 54,56 215,81 24,62 22,56
© 2011 Ministrstvo za kmetijstvo, gozdarstvo in prehrano. Vse pravice pridržane.